sensor_id;sensor_type;location;lat;lon;timestamp;P1;durP1;ratioP1;P2;durP2;ratioP2
57341;SDS011;43175;51.002;18.316;2023-04-15T00:00:06;23.20;;;13.00;;
57341;SDS011;43175;51.002;18.316;2023-04-15T00:02:32;21.10;;;13.00;;
57341;SDS011;43175;51.002;18.316;2023-04-15T00:04:57;22.80;;;13.10;;
57341;SDS011;43175;51.002;18.316;2023-04-15T00:07:23;20.10;;;12.70;;
57341;SDS011;43175;51.002;18.316;2023-04-15T00:09:48;21.40;;;12.90;;
57341;SDS011;43175;51.002;18.316;2023-04-15T00:12:13;20.50;;;13.20;;
57341;SDS011;43175;51.002;18.316;2023-04-15T00:14:40;21.40;;;12.70;;
57341;SDS011;43175;51.002;18.316;2023-04-15T00:17:06;20.70;;;12.70;;
57341;SDS011;43175;51.002;18.316;2023-04-15T00:19:31;23.20;;;13.80;;
57341;SDS011;43175;51.002;18.316;2023-04-15T00:21:58;20.00;;;12.50;;
57341;SDS011;43175;51.002;18.316;2023-04-15T00:24:24;20.80;;;13.50;;
57341;SDS011;43175;51.002;18.316;2023-04-15T00:26:50;21.20;;;12.60;;
57341;SDS011;43175;51.002;18.316;2023-04-15T00:29:16;22.70;;;12.90;;
57341;SDS011;43175;51.002;18.316;2023-04-15T00:31:41;20.50;;;12.80;;
57341;SDS011;43175;51.002;18.316;2023-04-15T00:34:07;21.00;;;12.80;;
57341;SDS011;43175;51.002;18.316;2023-04-15T00:36:32;23.30;;;13.20;;
57341;SDS011;43175;51.002;18.316;2023-04-15T00:38:59;21.30;;;13.00;;
57341;SDS011;43175;51.002;18.316;2023-04-15T00:41:25;23.00;;;12.80;;
57341;SDS011;43175;51.002;18.316;2023-04-15T00:43:50;20.60;;;13.20;;
57341;SDS011;43175;51.002;18.316;2023-04-15T00:46:16;19.20;;;12.30;;
57341;SDS011;43175;51.002;18.316;2023-04-15T00:48:44;22.10;;;13.10;;
57341;SDS011;43175;51.002;18.316;2023-04-15T00:51:11;21.20;;;12.30;;
57341;SDS011;43175;51.002;18.316;2023-04-15T00:53:36;19.80;;;12.00;;
57341;SDS011;43175;51.002;18.316;2023-04-15T00:56:02;20.00;;;12.10;;
57341;SDS011;43175;51.002;18.316;2023-04-15T00:58:27;19.80;;;12.40;;
57341;SDS011;43175;51.002;18.316;2023-04-15T01:00:54;19.00;;;12.00;;
57341;SDS011;43175;51.002;18.316;2023-04-15T01:03:20;21.80;;;12.00;;
57341;SDS011;43175;51.002;18.316;2023-04-15T01:05:45;21.30;;;11.50;;
57341;SDS011;43175;51.002;18.316;2023-04-15T01:08:12;21.90;;;12.40;;
57341;SDS011;43175;51.002;18.316;2023-04-15T01:10:38;18.00;;;11.70;;
57341;SDS011;43175;51.002;18.316;2023-04-15T01:13:03;20.50;;;12.60;;
57341;SDS011;43175;51.002;18.316;2023-04-15T01:15:29;20.30;;;11.90;;
57341;SDS011;43175;51.002;18.316;2023-04-15T01:17:56;19.50;;;11.70;;
57341;SDS011;43175;51.002;18.316;2023-04-15T01:20:23;18.90;;;11.70;;
57341;SDS011;43175;51.002;18.316;2023-04-15T01:22:48;21.10;;;12.40;;
57341;SDS011;43175;51.002;18.316;2023-04-15T01:25:17;19.20;;;12.30;;
57341;SDS011;43175;51.002;18.316;2023-04-15T01:27:43;18.00;;;12.00;;
57341;SDS011;43175;51.002;18.316;2023-04-15T01:30:10;22.80;;;13.00;;
57341;SDS011;43175;51.002;18.316;2023-04-15T01:32:36;18.60;;;12.00;;
57341;SDS011;43175;51.002;18.316;2023-04-15T01:35:01;19.00;;;11.90;;
57341;SDS011;43175;51.002;18.316;2023-04-15T01:37:28;20.50;;;12.50;;
57341;SDS011;43175;51.002;18.316;2023-04-15T01:39:53;19.80;;;12.40;;
57341;SDS011;43175;51.002;18.316;2023-04-15T01:42:20;20.40;;;12.40;;
57341;SDS011;43175;51.002;18.316;2023-04-15T01:44:46;21.20;;;13.40;;
57341;SDS011;43175;51.002;18.316;2023-04-15T01:47:11;20.60;;;12.90;;
57341;SDS011;43175;51.002;18.316;2023-04-15T01:49:37;21.70;;;12.40;;
57341;SDS011;43175;51.002;18.316;2023-04-15T01:52:02;22.30;;;13.50;;
57341;SDS011;43175;51.002;18.316;2023-04-15T01:54:28;19.90;;;13.10;;
57341;SDS011;43175;51.002;18.316;2023-04-15T01:56:53;20.20;;;13.00;;
57341;SDS011;43175;51.002;18.316;2023-04-15T01:59:18;22.00;;;13.10;;
57341;SDS011;43175;51.002;18.316;2023-04-15T02:01:44;18.60;;;12.00;;
57341;SDS011;43175;51.002;18.316;2023-04-15T02:04:10;19.60;;;12.40;;
57341;SDS011;43175;51.002;18.316;2023-04-15T02:06:41;20.00;;;13.40;;
57341;SDS011;43175;51.002;18.316;2023-04-15T02:09:08;20.60;;;13.00;;
57341;SDS011;43175;51.002;18.316;2023-04-15T02:11:34;21.90;;;13.10;;
57341;SDS011;43175;51.002;18.316;2023-04-15T02:14:01;21.10;;;13.30;;
57341;SDS011;43175;51.002;18.316;2023-04-15T02:16:31;22.10;;;13.80;;
57341;SDS011;43175;51.002;18.316;2023-04-15T02:18:58;21.40;;;13.60;;
57341;SDS011;43175;51.002;18.316;2023-04-15T02:21:25;19.50;;;12.60;;
57341;SDS011;43175;51.002;18.316;2023-04-15T02:23:51;20.50;;;13.50;;
57341;SDS011;43175;51.002;18.316;2023-04-15T02:26:18;17.60;;;11.40;;
57341;SDS011;43175;51.002;18.316;2023-04-15T02:28:46;21.40;;;12.30;;
57341;SDS011;43175;51.002;18.316;2023-04-15T02:31:12;18.20;;;11.20;;
57341;SDS011;43175;51.002;18.316;2023-04-15T02:33:37;19.10;;;11.50;;
57341;SDS011;43175;51.002;18.316;2023-04-15T02:36:03;18.20;;;11.10;;
57341;SDS011;43175;51.002;18.316;2023-04-15T02:38:29;18.10;;;10.70;;
57341;SDS011;43175;51.002;18.316;2023-04-15T02:40:56;18.60;;;10.50;;
57341;SDS011;43175;51.002;18.316;2023-04-15T02:43:21;18.30;;;10.80;;
57341;SDS011;43175;51.002;18.316;2023-04-15T02:45:47;18.20;;;11.10;;
57341;SDS011;43175;51.002;18.316;2023-04-15T02:48:13;18.20;;;11.10;;
57341;SDS011;43175;51.002;18.316;2023-04-15T02:50:39;18.10;;;10.70;;
57341;SDS011;43175;51.002;18.316;2023-04-15T02:53:05;17.20;;;10.60;;
57341;SDS011;43175;51.002;18.316;2023-04-15T02:55:31;16.90;;;9.90;;
57341;SDS011;43175;51.002;18.316;2023-04-15T02:57:57;17.80;;;10.70;;
57341;SDS011;43175;51.002;18.316;2023-04-15T03:00:26;18.10;;;11.10;;
57341;SDS011;43175;51.002;18.316;2023-04-15T03:02:56;17.20;;;10.60;;
57341;SDS011;43175;51.002;18.316;2023-04-15T03:05:23;19.80;;;10.80;;
57341;SDS011;43175;51.002;18.316;2023-04-15T03:07:50;19.50;;;11.60;;
57341;SDS011;43175;51.002;18.316;2023-04-15T03:10:16;18.40;;;10.80;;
57341;SDS011;43175;51.002;18.316;2023-04-15T03:12:42;20.40;;;12.10;;
57341;SDS011;43175;51.002;18.316;2023-04-15T03:15:07;19.40;;;11.60;;
57341;SDS011;43175;51.002;18.316;2023-04-15T03:17:34;18.90;;;11.30;;
57341;SDS011;43175;51.002;18.316;2023-04-15T03:20:02;20.50;;;11.90;;
57341;SDS011;43175;51.002;18.316;2023-04-15T03:22:30;20.40;;;11.80;;
57341;SDS011;43175;51.002;18.316;2023-04-15T03:24:56;21.60;;;12.20;;
57341;SDS011;43175;51.002;18.316;2023-04-15T03:27:21;21.20;;;12.40;;
57341;SDS011;43175;51.002;18.316;2023-04-15T03:29:47;22.10;;;12.30;;
57341;SDS011;43175;51.002;18.316;2023-04-15T03:32:13;24.00;;;13.60;;
57341;SDS011;43175;51.002;18.316;2023-04-15T03:34:40;22.70;;;14.10;;
57341;SDS011;43175;51.002;18.316;2023-04-15T03:37:06;23.00;;;14.00;;
57341;SDS011;43175;51.002;18.316;2023-04-15T03:39:32;25.40;;;13.50;;
57341;SDS011;43175;51.002;18.316;2023-04-15T03:41:57;22.20;;;12.80;;
57341;SDS011;43175;51.002;18.316;2023-04-15T03:44:25;21.80;;;12.80;;
57341;SDS011;43175;51.002;18.316;2023-04-15T03:46:51;19.60;;;11.40;;
57341;SDS011;43175;51.002;18.316;2023-04-15T03:49:16;21.50;;;11.40;;
57341;SDS011;43175;51.002;18.316;2023-04-15T03:51:43;19.10;;;10.90;;
57341;SDS011;43175;51.002;18.316;2023-04-15T03:54:09;21.60;;;11.50;;
57341;SDS011;43175;51.002;18.316;2023-04-15T03:56:36;20.20;;;11.80;;
57341;SDS011;43175;51.002;18.316;2023-04-15T03:59:01;20.70;;;11.50;;
57341;SDS011;43175;51.002;18.316;2023-04-15T04:01:27;19.10;;;11.50;;
57341;SDS011;43175;51.002;18.316;2023-04-15T04:03:52;21.60;;;11.30;;
57341;SDS011;43175;51.002;18.316;2023-04-15T04:06:18;20.10;;;11.90;;
57341;SDS011;43175;51.002;18.316;2023-04-15T04:08:44;20.00;;;11.40;;
57341;SDS011;43175;51.002;18.316;2023-04-15T04:11:09;18.50;;;10.90;;
57341;SDS011;43175;51.002;18.316;2023-04-15T04:13:34;20.20;;;10.20;;
57341;SDS011;43175;51.002;18.316;2023-04-15T04:16:00;16.80;;;9.40;;
57341;SDS011;43175;51.002;18.316;2023-04-15T04:18:25;17.00;;;9.20;;
57341;SDS011;43175;51.002;18.316;2023-04-15T04:20:51;15.10;;;8.30;;
57341;SDS011;43175;51.002;18.316;2023-04-15T04:23:16;15.80;;;8.10;;
57341;SDS011;43175;51.002;18.316;2023-04-15T04:25:42;15.00;;;7.40;;
57341;SDS011;43175;51.002;18.316;2023-04-15T04:28:07;13.60;;;6.90;;
57341;SDS011;43175;51.002;18.316;2023-04-15T04:30:34;13.10;;;6.90;;
57341;SDS011;43175;51.002;18.316;2023-04-15T04:33:00;13.80;;;7.00;;
57341;SDS011;43175;51.002;18.316;2023-04-15T04:35:25;13.60;;;7.00;;
57341;SDS011;43175;51.002;18.316;2023-04-15T04:37:51;14.40;;;7.20;;
57341;SDS011;43175;51.002;18.316;2023-04-15T04:40:17;14.00;;;7.30;;
57341;SDS011;43175;51.002;18.316;2023-04-15T04:42:43;14.30;;;7.60;;
57341;SDS011;43175;51.002;18.316;2023-04-15T04:45:09;14.70;;;7.80;;
57341;SDS011;43175;51.002;18.316;2023-04-15T04:47:34;14.60;;;7.80;;
57341;SDS011;43175;51.002;18.316;2023-04-15T04:50:00;13.40;;;7.10;;
57341;SDS011;43175;51.002;18.316;2023-04-15T04:52:26;14.10;;;7.30;;
57341;SDS011;43175;51.002;18.316;2023-04-15T04:54:51;14.60;;;7.30;;
57341;SDS011;43175;51.002;18.316;2023-04-15T04:57:17;13.60;;;6.60;;
57341;SDS011;43175;51.002;18.316;2023-04-15T04:59:43;13.40;;;6.90;;
57341;SDS011;43175;51.002;18.316;2023-04-15T05:02:08;12.40;;;6.30;;
57341;SDS011;43175;51.002;18.316;2023-04-15T05:04:34;12.90;;;6.50;;
57341;SDS011;43175;51.002;18.316;2023-04-15T05:07:01;14.50;;;6.40;;
57341;SDS011;43175;51.002;18.316;2023-04-15T05:09:26;12.20;;;6.30;;
57341;SDS011;43175;51.002;18.316;2023-04-15T05:11:52;12.80;;;6.60;;
57341;SDS011;43175;51.002;18.316;2023-04-15T05:14:18;12.30;;;6.20;;
57341;SDS011;43175;51.002;18.316;2023-04-15T05:16:43;12.20;;;5.80;;
57341;SDS011;43175;51.002;18.316;2023-04-15T05:19:09;12.70;;;6.20;;
57341;SDS011;43175;51.002;18.316;2023-04-15T05:21:35;12.10;;;6.10;;
57341;SDS011;43175;51.002;18.316;2023-04-15T05:24:00;11.00;;;5.30;;
57341;SDS011;43175;51.002;18.316;2023-04-15T05:26:25;11.40;;;5.60;;
57341;SDS011;43175;51.002;18.316;2023-04-15T05:28:51;12.50;;;5.50;;
57341;SDS011;43175;51.002;18.316;2023-04-15T05:31:17;10.90;;;5.20;;
57341;SDS011;43175;51.002;18.316;2023-04-15T05:33:42;11.70;;;5.90;;
57341;SDS011;43175;51.002;18.316;2023-04-15T05:36:08;11.70;;;5.90;;
57341;SDS011;43175;51.002;18.316;2023-04-15T05:38:33;11.20;;;5.20;;
57341;SDS011;43175;51.002;18.316;2023-04-15T05:40:59;10.80;;;5.30;;
57341;SDS011;43175;51.002;18.316;2023-04-15T05:43:24;10.90;;;5.30;;
57341;SDS011;43175;51.002;18.316;2023-04-15T05:45:50;11.50;;;5.70;;
57341;SDS011;43175;51.002;18.316;2023-04-15T05:48:16;12.60;;;5.60;;
57341;SDS011;43175;51.002;18.316;2023-04-15T05:50:42;11.40;;;5.70;;
57341;SDS011;43175;51.002;18.316;2023-04-15T05:53:07;11.90;;;5.80;;
57341;SDS011;43175;51.002;18.316;2023-04-15T05:55:33;11.20;;;5.40;;
57341;SDS011;43175;51.002;18.316;2023-04-15T05:57:58;11.30;;;5.50;;
57341;SDS011;43175;51.002;18.316;2023-04-15T06:00:24;12.00;;;5.20;;
57341;SDS011;43175;51.002;18.316;2023-04-15T06:02:50;11.30;;;5.70;;
57341;SDS011;43175;51.002;18.316;2023-04-15T06:05:15;12.50;;;5.90;;
57341;SDS011;43175;51.002;18.316;2023-04-15T06:07:41;10.80;;;5.40;;
57341;SDS011;43175;51.002;18.316;2023-04-15T06:10:08;10.60;;;5.10;;
57341;SDS011;43175;51.002;18.316;2023-04-15T06:12:34;10.50;;;5.10;;
57341;SDS011;43175;51.002;18.316;2023-04-15T06:15:00;10.90;;;5.30;;
57341;SDS011;43175;51.002;18.316;2023-04-15T06:17:25;10.10;;;4.80;;
57341;SDS011;43175;51.002;18.316;2023-04-15T06:19:51;10.70;;;5.00;;
57341;SDS011;43175;51.002;18.316;2023-04-15T06:22:20;10.60;;;4.90;;
57341;SDS011;43175;51.002;18.316;2023-04-15T06:24:47;10.60;;;4.60;;
57341;SDS011;43175;51.002;18.316;2023-04-15T06:27:15;10.20;;;4.40;;
57341;SDS011;43175;51.002;18.316;2023-04-15T06:29:41;10.40;;;4.40;;
57341;SDS011;43175;51.002;18.316;2023-04-15T06:32:06;11.30;;;4.80;;
57341;SDS011;43175;51.002;18.316;2023-04-15T06:34:32;9.40;;;4.40;;
57341;SDS011;43175;51.002;18.316;2023-04-15T06:36:57;9.40;;;4.10;;
57341;SDS011;43175;51.002;18.316;2023-04-15T06:39:23;9.50;;;4.00;;
57341;SDS011;43175;51.002;18.316;2023-04-15T06:41:48;8.90;;;3.70;;
57341;SDS011;43175;51.002;18.316;2023-04-15T06:44:14;10.50;;;3.90;;
57341;SDS011;43175;51.002;18.316;2023-04-15T06:46:40;9.50;;;4.00;;
57341;SDS011;43175;51.002;18.316;2023-04-15T06:49:05;9.30;;;3.80;;
57341;SDS011;43175;51.002;18.316;2023-04-15T06:51:30;9.70;;;3.80;;
57341;SDS011;43175;51.002;18.316;2023-04-15T06:53:57;14.50;;;9.40;;
57341;SDS011;43175;51.002;18.316;2023-04-15T06:56:22;9.60;;;4.10;;
57341;SDS011;43175;51.002;18.316;2023-04-15T06:58:48;8.90;;;3.60;;
57341;SDS011;43175;51.002;18.316;2023-04-15T07:01:13;9.70;;;3.70;;
57341;SDS011;43175;51.002;18.316;2023-04-15T07:03:39;8.90;;;3.60;;
57341;SDS011;43175;51.002;18.316;2023-04-15T07:06:06;8.70;;;3.60;;
57341;SDS011;43175;51.002;18.316;2023-04-15T07:08:32;8.30;;;3.40;;
57341;SDS011;43175;51.002;18.316;2023-04-15T07:10:59;8.60;;;3.40;;
57341;SDS011;43175;51.002;18.316;2023-04-15T07:13:24;9.90;;;3.40;;
57341;SDS011;43175;51.002;18.316;2023-04-15T07:15:50;8.60;;;3.40;;
57341;SDS011;43175;51.002;18.316;2023-04-15T07:18:16;8.40;;;3.20;;
57341;SDS011;43175;51.002;18.316;2023-04-15T07:20:41;9.00;;;3.40;;
57341;SDS011;43175;51.002;18.316;2023-04-15T07:23:07;8.90;;;3.20;;
57341;SDS011;43175;51.002;18.316;2023-04-15T07:25:32;8.60;;;3.10;;
57341;SDS011;43175;51.002;18.316;2023-04-15T07:27:58;8.10;;;2.90;;
57341;SDS011;43175;51.002;18.316;2023-04-15T07:30:23;8.70;;;2.90;;
57341;SDS011;43175;51.002;18.316;2023-04-15T07:32:48;8.10;;;2.90;;
57341;SDS011;43175;51.002;18.316;2023-04-15T07:35:14;8.60;;;3.10;;
57341;SDS011;43175;51.002;18.316;2023-04-15T07:37:40;8.30;;;2.90;;
57341;SDS011;43175;51.002;18.316;2023-04-15T07:40:08;7.80;;;2.70;;
57341;SDS011;43175;51.002;18.316;2023-04-15T07:42:34;7.40;;;2.60;;
57341;SDS011;43175;51.002;18.316;2023-04-15T07:45:00;8.10;;;2.80;;
57341;SDS011;43175;51.002;18.316;2023-04-15T07:47:25;7.80;;;2.70;;
57341;SDS011;43175;51.002;18.316;2023-04-15T07:49:51;8.10;;;2.80;;
57341;SDS011;43175;51.002;18.316;2023-04-15T07:52:17;7.60;;;2.90;;
57341;SDS011;43175;51.002;18.316;2023-04-15T07:54:43;7.60;;;2.40;;
57341;SDS011;43175;51.002;18.316;2023-04-15T07:57:09;6.00;;;2.00;;
57341;SDS011;43175;51.002;18.316;2023-04-15T07:59:35;4.70;;;1.90;;
57341;SDS011;43175;51.002;18.316;2023-04-15T08:02:01;5.10;;;1.90;;
57341;SDS011;43175;51.002;18.316;2023-04-15T08:04:26;4.50;;;1.80;;
57341;SDS011;43175;51.002;18.316;2023-04-15T08:06:52;4.40;;;1.70;;
57341;SDS011;43175;51.002;18.316;2023-04-15T08:09:19;6.40;;;1.50;;
57341;SDS011;43175;51.002;18.316;2023-04-15T08:11:47;5.30;;;1.70;;
57341;SDS011;43175;51.002;18.316;2023-04-15T08:14:13;3.20;;;1.60;;
57341;SDS011;43175;51.002;18.316;2023-04-15T08:16:39;3.50;;;1.60;;
57341;SDS011;43175;51.002;18.316;2023-04-15T08:19:05;2.60;;;1.40;;
57341;SDS011;43175;51.002;18.316;2023-04-15T08:21:30;2.40;;;1.30;;
57341;SDS011;43175;51.002;18.316;2023-04-15T08:23:56;3.70;;;1.50;;
57341;SDS011;43175;51.002;18.316;2023-04-15T08:26:22;4.20;;;1.70;;
57341;SDS011;43175;51.002;18.316;2023-04-15T08:28:47;3.70;;;1.60;;
57341;SDS011;43175;51.002;18.316;2023-04-15T08:31:13;3.50;;;1.50;;
57341;SDS011;43175;51.002;18.316;2023-04-15T08:33:40;3.50;;;1.60;;
57341;SDS011;43175;51.002;18.316;2023-04-15T08:36:06;3.10;;;1.50;;
57341;SDS011;43175;51.002;18.316;2023-04-15T08:38:32;6.10;;;2.00;;
57341;SDS011;43175;51.002;18.316;2023-04-15T08:40:59;3.20;;;1.40;;
57341;SDS011;43175;51.002;18.316;2023-04-15T08:43:31;4.40;;;1.50;;
57341;SDS011;43175;51.002;18.316;2023-04-15T08:45:58;2.90;;;1.50;;
57341;SDS011;43175;51.002;18.316;2023-04-15T08:48:29;4.00;;;1.60;;
57341;SDS011;43175;51.002;18.316;2023-04-15T08:50:57;4.60;;;1.70;;
57341;SDS011;43175;51.002;18.316;2023-04-15T08:53:23;4.10;;;1.70;;
57341;SDS011;43175;51.002;18.316;2023-04-15T08:55:52;4.00;;;1.80;;
57341;SDS011;43175;51.002;18.316;2023-04-15T08:58:21;5.90;;;1.80;;
57341;SDS011;43175;51.002;18.316;2023-04-15T09:00:47;4.80;;;1.60;;
57341;SDS011;43175;51.002;18.316;2023-04-15T09:03:13;3.70;;;1.60;;
57341;SDS011;43175;51.002;18.316;2023-04-15T09:05:38;2.90;;;1.50;;
57341;SDS011;43175;51.002;18.316;2023-04-15T09:08:04;5.10;;;1.70;;
57341;SDS011;43175;51.002;18.316;2023-04-15T09:10:30;4.40;;;1.70;;
57341;SDS011;43175;51.002;18.316;2023-04-15T09:12:56;4.30;;;1.70;;
57341;SDS011;43175;51.002;18.316;2023-04-15T09:15:25;4.90;;;1.80;;
57341;SDS011;43175;51.002;18.316;2023-04-15T09:17:54;3.20;;;1.50;;
57341;SDS011;43175;51.002;18.316;2023-04-15T09:20:20;2.80;;;1.40;;
57341;SDS011;43175;51.002;18.316;2023-04-15T09:22:47;3.90;;;1.60;;
57341;SDS011;43175;51.002;18.316;2023-04-15T09:27:46;2.60;;;1.40;;
57341;SDS011;43175;51.002;18.316;2023-04-15T09:30:13;2.50;;;1.40;;
57341;SDS011;43175;51.002;18.316;2023-04-15T09:32:47;4.00;;;1.50;;
57341;SDS011;43175;51.002;18.316;2023-04-15T09:35:14;2.60;;;1.40;;
57341;SDS011;43175;51.002;18.316;2023-04-15T09:37:40;2.70;;;1.50;;
57341;SDS011;43175;51.002;18.316;2023-04-15T09:40:05;4.30;;;1.50;;
57341;SDS011;43175;51.002;18.316;2023-04-15T09:42:33;4.20;;;1.50;;
57341;SDS011;43175;51.002;18.316;2023-04-15T09:45:10;72.00;;;5.60;;
57341;SDS011;43175;51.002;18.316;2023-04-15T09:47:36;14.50;;;2.00;;
57341;SDS011;43175;51.002;18.316;2023-04-15T09:50:02;3.10;;;1.50;;
57341;SDS011;43175;51.002;18.316;2023-04-15T09:52:28;5.50;;;1.60;;
57341;SDS011;43175;51.002;18.316;2023-04-15T09:54:57;4.10;;;1.50;;
57341;SDS011;43175;51.002;18.316;2023-04-15T09:57:24;3.60;;;1.50;;
57341;SDS011;43175;51.002;18.316;2023-04-15T09:59:50;2.80;;;1.40;;
57341;SDS011;43175;51.002;18.316;2023-04-15T10:02:16;4.80;;;1.70;;
57341;SDS011;43175;51.002;18.316;2023-04-15T10:04:42;3.90;;;1.60;;
57341;SDS011;43175;51.002;18.316;2023-04-15T10:07:09;3.50;;;1.60;;
57341;SDS011;43175;51.002;18.316;2023-04-15T10:09:37;3.30;;;1.50;;
57341;SDS011;43175;51.002;18.316;2023-04-15T10:12:03;4.30;;;1.60;;
57341;SDS011;43175;51.002;18.316;2023-04-15T10:14:36;5.70;;;1.60;;
57341;SDS011;43175;51.002;18.316;2023-04-15T10:17:03;4.10;;;1.60;;
57341;SDS011;43175;51.002;18.316;2023-04-15T10:19:30;4.40;;;1.70;;
57341;SDS011;43175;51.002;18.316;2023-04-15T10:21:57;4.10;;;1.50;;
57341;SDS011;43175;51.002;18.316;2023-04-15T10:24:23;4.70;;;1.80;;
57341;SDS011;43175;51.002;18.316;2023-04-15T10:26:49;3.70;;;1.60;;
57341;SDS011;43175;51.002;18.316;2023-04-15T10:29:15;4.60;;;1.60;;
57341;SDS011;43175;51.002;18.316;2023-04-15T10:31:41;4.70;;;1.70;;
57341;SDS011;43175;51.002;18.316;2023-04-15T10:34:07;5.20;;;1.70;;
57341;SDS011;43175;51.002;18.316;2023-04-15T10:36:33;4.50;;;1.70;;
57341;SDS011;43175;51.002;18.316;2023-04-15T10:38:59;3.70;;;1.70;;
57341;SDS011;43175;51.002;18.316;2023-04-15T10:41:25;4.40;;;1.60;;
57341;SDS011;43175;51.002;18.316;2023-04-15T10:49:08;4.70;;;1.80;;
57341;SDS011;43175;51.002;18.316;2023-04-15T10:51:39;4.70;;;1.80;;
57341;SDS011;43175;51.002;18.316;2023-04-15T10:54:13;5.10;;;1.80;;
57341;SDS011;43175;51.002;18.316;2023-04-15T10:56:42;4.00;;;1.70;;
57341;SDS011;43175;51.002;18.316;2023-04-15T10:59:08;5.10;;;1.80;;
57341;SDS011;43175;51.002;18.316;2023-04-15T11:01:50;6.10;;;1.90;;
57341;SDS011;43175;51.002;18.316;2023-04-15T11:07:33;5.90;;;2.00;;
57341;SDS011;43175;51.002;18.316;2023-04-15T11:12:45;7.10;;;2.30;;
57341;SDS011;43175;51.002;18.316;2023-04-15T11:17:56;7.80;;;2.30;;
57341;SDS011;43175;51.002;18.316;2023-04-15T11:20:30;6.60;;;2.10;;
57341;SDS011;43175;51.002;18.316;2023-04-15T11:22:56;7.50;;;2.40;;
57341;SDS011;43175;51.002;18.316;2023-04-15T11:25:22;6.40;;;2.10;;
57341;SDS011;43175;51.002;18.316;2023-04-15T11:27:49;6.70;;;2.10;;
57341;SDS011;43175;51.002;18.316;2023-04-15T11:30:21;6.20;;;2.10;;
57341;SDS011;43175;51.002;18.316;2023-04-15T11:32:49;6.30;;;2.00;;
57341;SDS011;43175;51.002;18.316;2023-04-15T11:35:15;5.40;;;2.00;;
57341;SDS011;43175;51.002;18.316;2023-04-15T11:37:43;5.80;;;2.00;;
57341;SDS011;43175;51.002;18.316;2023-04-15T11:40:09;6.40;;;2.00;;
57341;SDS011;43175;51.002;18.316;2023-04-15T11:42:35;5.80;;;2.10;;
57341;SDS011;43175;51.002;18.316;2023-04-15T11:47:37;6.20;;;2.10;;
57341;SDS011;43175;51.002;18.316;2023-04-15T11:50:12;6.50;;;2.10;;
57341;SDS011;43175;51.002;18.316;2023-04-15T11:52:57;8.00;;;2.30;;
57341;SDS011;43175;51.002;18.316;2023-04-15T11:55:24;6.80;;;2.20;;
57341;SDS011;43175;51.002;18.316;2023-04-15T11:58:04;7.90;;;2.40;;
57341;SDS011;43175;51.002;18.316;2023-04-15T12:00:34;7.30;;;2.30;;
57341;SDS011;43175;51.002;18.316;2023-04-15T12:03:10;7.40;;;2.30;;
57341;SDS011;43175;51.002;18.316;2023-04-15T12:05:37;7.00;;;2.20;;
57341;SDS011;43175;51.002;18.316;2023-04-15T12:13:53;6.10;;;2.10;;
57341;SDS011;43175;51.002;18.316;2023-04-15T12:16:21;5.20;;;2.00;;
57341;SDS011;43175;51.002;18.316;2023-04-15T12:18:49;6.70;;;2.10;;
57341;SDS011;43175;51.002;18.316;2023-04-15T12:21:17;6.70;;;2.20;;
57341;SDS011;43175;51.002;18.316;2023-04-15T12:23:47;7.20;;;2.30;;
57341;SDS011;43175;51.002;18.316;2023-04-15T12:26:15;7.90;;;2.40;;
57341;SDS011;43175;51.002;18.316;2023-04-15T12:28:41;7.10;;;2.30;;
57341;SDS011;43175;51.002;18.316;2023-04-15T12:31:07;7.50;;;2.40;;
57341;SDS011;43175;51.002;18.316;2023-04-15T12:33:34;8.00;;;2.50;;
57341;SDS011;43175;51.002;18.316;2023-04-15T12:36:00;8.20;;;3.00;;
57341;SDS011;43175;51.002;18.316;2023-04-15T12:38:25;8.10;;;2.50;;
57341;SDS011;43175;51.002;18.316;2023-04-15T12:40:51;7.30;;;2.40;;
57341;SDS011;43175;51.002;18.316;2023-04-15T12:43:16;7.60;;;2.50;;
57341;SDS011;43175;51.002;18.316;2023-04-15T12:45:42;6.80;;;2.20;;
57341;SDS011;43175;51.002;18.316;2023-04-15T12:48:07;7.70;;;2.30;;
57341;SDS011;43175;51.002;18.316;2023-04-15T12:50:34;7.30;;;2.50;;
57341;SDS011;43175;51.002;18.316;2023-04-15T12:53:00;8.00;;;2.50;;
57341;SDS011;43175;51.002;18.316;2023-04-15T12:55:25;8.00;;;2.40;;
57341;SDS011;43175;51.002;18.316;2023-04-15T12:57:51;7.40;;;2.50;;
57341;SDS011;43175;51.002;18.316;2023-04-15T13:00:16;11.00;;;5.40;;
57341;SDS011;43175;51.002;18.316;2023-04-15T13:02:42;11.60;;;5.80;;
57341;SDS011;43175;51.002;18.316;2023-04-15T13:05:08;11.40;;;5.50;;
57341;SDS011;43175;51.002;18.316;2023-04-15T13:07:34;11.20;;;5.30;;
57341;SDS011;43175;51.002;18.316;2023-04-15T13:10:00;11.00;;;5.50;;
57341;SDS011;43175;51.002;18.316;2023-04-15T13:12:25;13.30;;;4.90;;
57341;SDS011;43175;51.002;18.316;2023-04-15T13:14:51;11.20;;;4.70;;
57341;SDS011;43175;51.002;18.316;2023-04-15T13:17:17;11.50;;;5.40;;
57341;SDS011;43175;51.002;18.316;2023-04-15T13:19:45;11.30;;;5.30;;
57341;SDS011;43175;51.002;18.316;2023-04-15T13:22:10;11.20;;;5.10;;
57341;SDS011;43175;51.002;18.316;2023-04-15T13:24:37;10.60;;;4.50;;
57341;SDS011;43175;51.002;18.316;2023-04-15T13:27:03;11.40;;;5.20;;
57341;SDS011;43175;51.002;18.316;2023-04-15T13:29:29;11.10;;;5.00;;
57341;SDS011;43175;51.002;18.316;2023-04-15T13:31:55;10.90;;;4.90;;
57341;SDS011;43175;51.002;18.316;2023-04-15T13:34:21;11.00;;;5.20;;
57341;SDS011;43175;51.002;18.316;2023-04-15T13:36:46;11.80;;;4.90;;
57341;SDS011;43175;51.002;18.316;2023-04-15T13:39:12;11.70;;;5.90;;
57341;SDS011;43175;51.002;18.316;2023-04-15T13:41:38;11.20;;;5.40;;
57341;SDS011;43175;51.002;18.316;2023-04-15T13:44:04;11.50;;;5.70;;
57341;SDS011;43175;51.002;18.316;2023-04-15T13:46:30;13.00;;;5.60;;
57341;SDS011;43175;51.002;18.316;2023-04-15T13:48:55;11.80;;;5.80;;
57341;SDS011;43175;51.002;18.316;2023-04-15T13:51:21;12.50;;;5.50;;
57341;SDS011;43175;51.002;18.316;2023-04-15T13:53:46;11.20;;;5.50;;
57341;SDS011;43175;51.002;18.316;2023-04-15T13:56:12;11.50;;;5.50;;
57341;SDS011;43175;51.002;18.316;2023-04-15T13:58:40;13.10;;;6.10;;
57341;SDS011;43175;51.002;18.316;2023-04-15T14:01:05;12.10;;;5.50;;
57341;SDS011;43175;51.002;18.316;2023-04-15T14:03:31;11.00;;;5.20;;
57341;SDS011;43175;51.002;18.316;2023-04-15T14:05:58;10.30;;;4.40;;
57341;SDS011;43175;51.002;18.316;2023-04-15T14:08:24;10.00;;;4.60;;
57341;SDS011;43175;51.002;18.316;2023-04-15T14:10:49;12.10;;;5.50;;
57341;SDS011;43175;51.002;18.316;2023-04-15T14:13:15;11.00;;;5.30;;
57341;SDS011;43175;51.002;18.316;2023-04-15T14:15:41;11.40;;;5.20;;
57341;SDS011;43175;51.002;18.316;2023-04-15T14:18:06;11.50;;;5.10;;
57341;SDS011;43175;51.002;18.316;2023-04-15T14:20:32;10.10;;;4.80;;
57341;SDS011;43175;51.002;18.316;2023-04-15T14:22:57;9.50;;;4.30;;
57341;SDS011;43175;51.002;18.316;2023-04-15T14:25:23;9.90;;;4.20;;
57341;SDS011;43175;51.002;18.316;2023-04-15T14:27:49;12.10;;;5.70;;
57341;SDS011;43175;51.002;18.316;2023-04-15T14:30:14;10.50;;;4.60;;
57341;SDS011;43175;51.002;18.316;2023-04-15T14:32:40;10.60;;;4.50;;
57341;SDS011;43175;51.002;18.316;2023-04-15T14:35:05;10.30;;;4.60;;
57341;SDS011;43175;51.002;18.316;2023-04-15T14:37:31;12.40;;;4.60;;
57341;SDS011;43175;51.002;18.316;2023-04-15T14:39:57;10.20;;;4.40;;
57341;SDS011;43175;51.002;18.316;2023-04-15T14:42:22;13.90;;;5.00;;